Terminal Aerodrome Forecast
Issued by NWS

Home | Current Version | Previous Version | Text Only | Print | Product List | Glossary On
Versions: 1 2 3 4 5 6 7 8 9 10 11 12 13 14 15 16
000
FTUS45 KFGZ 282300
TAFSEZ
TAF
KSEZ 282334Z 2900/2924 VRB05KT P6SM BKN200
     FM290400 06010G18KT P6SM BKN150 OVC200
     FM291200 VRB05KT P6SM BKN120 OVC150=

USA.gov is the U.S. government's official web portal to all federal, state and local government web resources and services.